createdAt,value
2022-11-04T00:00:45.601Z,4.07
2022-11-04T00:03:12.399Z,5.37
2022-11-04T00:05:39.198Z,5.30
2022-11-04T00:08:24.498Z,4.37
2022-11-04T00:11:18.466Z,4.40
2022-11-04T00:13:47.355Z,4.10
2022-11-04T00:16:34.332Z,3.83
2022-11-04T00:19:02.369Z,4.17
2022-11-04T00:21:47.992Z,4.10
2022-11-04T00:24:33.845Z,5.13
2022-11-04T00:27:19.130Z,4.87
2022-11-04T00:29:46.012Z,4.37
2022-11-04T00:32:31.442Z,5.07
2022-11-04T00:34:58.338Z,5.63
2022-11-04T00:37:25.144Z,7.37
2022-11-04T00:39:51.986Z,4.57
2022-11-04T00:42:18.763Z,4.47
2022-11-04T00:44:45.625Z,4.77
2022-11-04T00:47:12.555Z,5.20
2022-11-04T00:49:39.553Z,6.90
2022-11-04T00:52:06.370Z,5.60
2022-11-04T00:54:33.226Z,6.93
2022-11-04T00:57:00.129Z,5.50
2022-11-04T00:59:27.172Z,5.37
2022-11-04T01:01:54.124Z,5.53
2022-11-04T01:04:21.082Z,7.00
2022-11-04T01:06:48.355Z,5.97
2022-11-04T01:09:15.242Z,8.00
2022-11-04T01:11:42.140Z,6.60
2022-11-04T01:14:09.275Z,6.53
2022-11-04T01:16:36.744Z,5.80
2022-11-04T01:19:04.435Z,6.47
2022-11-04T01:21:32.922Z,6.63
2022-11-04T01:24:02.363Z,6.77
2022-11-04T01:26:30.330Z,5.20
2022-11-04T01:28:58.914Z,4.80
2022-11-04T01:31:30.327Z,8.93
2022-11-04T01:33:59.284Z,4.93
2022-11-04T01:36:28.294Z,4.57
2022-11-04T01:38:57.270Z,4.17
2022-11-04T01:41:31.171Z,4.73
2022-11-04T01:44:23.921Z,4.50
2022-11-04T01:46:54.176Z,5.00
2022-11-04T01:49:33.098Z,3.67
2022-11-04T01:52:10.291Z,5.13
2022-11-04T01:54:39.693Z,4.90
2022-11-04T01:57:15.003Z,7.03
2022-11-04T01:59:42.901Z,3.93
2022-11-04T02:02:13.511Z,4.07
2022-11-04T02:04:41.181Z,6.17
2022-11-04T02:07:10.901Z,4.97
2022-11-04T02:09:40.233Z,5.90
2022-11-04T02:12:26.326Z,3.47
2022-11-04T02:14:55.453Z,4.47
2022-11-04T02:18:01.695Z,4.83
2022-11-04T02:20:48.347Z,3.30
2022-11-04T02:23:58.588Z,5.30
2022-11-04T02:26:48.093Z,2.87
2022-11-04T02:30:02.267Z,2.30
2022-11-04T02:32:55.783Z,3.50
2022-11-04T02:36:05.453Z,2.50
2022-11-04T02:38:52.390Z,4.27
2022-11-04T02:42:04.453Z,3.40
2022-11-04T02:45:01.077Z,4.93
2022-11-04T02:47:32.690Z,4.40
2022-11-04T02:50:20.872Z,3.03
2022-11-04T02:53:03.415Z,3.27
2022-11-04T02:55:44.614Z,3.50
2022-11-04T02:58:34.507Z,1.90
2022-11-04T03:01:06.303Z,3.77
2022-11-04T03:03:40.889Z,2.57
2022-11-04T03:06:13.264Z,1.93
2022-11-04T03:08:48.627Z,2.53
2022-11-04T03:11:23.380Z,2.97
2022-11-04T03:14:10.688Z,4.13
2022-11-04T03:16:49.606Z,5.40
2022-11-04T03:19:45.840Z,2.30
2022-11-04T03:22:21.058Z,3.33
2022-11-04T03:24:49.568Z,2.40
2022-11-04T03:27:46.353Z,3.80
2022-11-04T03:30:22.973Z,3.93
2022-11-04T03:33:27.334Z,3.33
2022-11-04T03:35:54.408Z,5.40
2022-11-04T03:38:23.282Z,4.77
2022-11-04T03:40:52.297Z,6.20
2022-11-04T03:43:27.744Z,5.07
2022-11-04T03:45:55.680Z,10.37
2022-11-04T03:48:23.737Z,9.00
2022-11-04T03:50:51.729Z,5.67
2022-11-04T03:53:27.596Z,6.17
2022-11-04T03:56:20.429Z,6.50
2022-11-04T03:59:05.349Z,9.53
2022-11-04T04:01:50.666Z,7.83
2022-11-04T04:04:29.919Z,7.10
2022-11-04T04:07:30.296Z,6.93
2022-11-04T04:10:34.126Z,6.80
2022-11-04T04:13:12.667Z,7.20
2022-11-04T04:15:52.247Z,7.63
2022-11-04T04:18:33.981Z,6.20
2022-11-04T04:21:06.655Z,8.50
2022-11-04T04:23:55.633Z,5.90
2022-11-04T04:26:44.038Z,7.03
2022-11-04T04:29:11.694Z,5.97
2022-11-04T04:31:49.838Z,5.93
2022-11-04T04:34:36.764Z,4.80
2022-11-04T04:37:19.374Z,6.37
2022-11-04T04:40:16.124Z,6.33
2022-11-04T04:43:03.328Z,8.67
2022-11-04T04:45:36.261Z,3.93
2022-11-04T04:48:05.508Z,4.07
2022-11-04T04:50:40.195Z,6.77
2022-11-04T04:53:07.442Z,4.20
2022-11-04T04:55:39.034Z,4.30
2022-11-04T04:58:09.407Z,3.67
2022-11-04T05:00:36.251Z,6.73
2022-11-04T05:03:03.095Z,4.07
2022-11-04T05:05:29.894Z,5.53
2022-11-04T05:08:04.149Z,4.33
2022-11-04T05:10:31.160Z,4.47
2022-11-04T05:13:19.644Z,4.83
2022-11-04T05:15:46.504Z,4.33
2022-11-04T05:18:13.290Z,8.00
2022-11-04T05:20:40.248Z,4.60
2022-11-04T05:23:08.143Z,3.23
2022-11-04T05:25:35.004Z,3.57
2022-11-04T05:28:02.485Z,3.40
2022-11-04T05:30:29.405Z,5.97
2022-11-04T05:32:59.909Z,5.97
2022-11-04T05:35:30.672Z,5.13
2022-11-04T05:37:57.478Z,4.57
2022-11-04T05:40:25.223Z,3.90
2022-11-04T05:42:52.170Z,5.03
2022-11-04T05:45:20.011Z,5.83
2022-11-04T05:47:46.805Z,4.17
2022-11-04T05:50:13.734Z,5.13
2022-11-04T05:52:40.521Z,4.77
2022-11-04T05:55:07.931Z,5.63
2022-11-04T05:57:35.652Z,4.50
2022-11-04T06:00:03.702Z,4.77
2022-11-04T06:02:31.316Z,3.53
2022-11-04T06:04:58.280Z,5.03
2022-11-04T06:07:25.045Z,4.53
2022-11-04T06:09:51.857Z,7.27
2022-11-04T06:12:18.855Z,8.43
2022-11-04T06:14:45.719Z,4.20
2022-11-04T06:17:19.929Z,5.27
2022-11-04T06:19:47.731Z,4.60
2022-11-04T06:22:18.401Z,4.87
2022-11-04T06:24:45.860Z,4.00
2022-11-04T06:27:13.338Z,2.87
2022-11-04T06:29:41.234Z,4.60
2022-11-04T06:32:19.720Z,3.07
2022-11-04T06:34:46.644Z,5.17
2022-11-04T06:37:13.437Z,4.80
2022-11-04T06:39:40.472Z,4.83
2022-11-04T06:42:07.224Z,5.73
2022-11-04T06:44:34.522Z,3.60
2022-11-04T06:47:02.093Z,3.33
2022-11-04T06:49:28.916Z,4.10
2022-11-04T06:51:55.692Z,6.03
2022-11-04T06:54:22.520Z,4.50
2022-11-04T06:56:49.536Z,5.67
2022-11-04T06:59:20.372Z,3.47
2022-11-04T07:01:49.823Z,4.23
2022-11-04T07:04:16.908Z,5.70
2022-11-04T07:06:44.828Z,4.10
2022-11-04T07:09:15.010Z,6.13
2022-11-04T07:11:44.411Z,4.57
2022-11-04T07:14:12.581Z,3.63
2022-11-04T07:16:39.554Z,5.57
2022-11-04T07:19:06.749Z,5.87
2022-11-04T07:21:33.900Z,6.07
2022-11-04T07:24:02.274Z,3.17
2022-11-04T07:26:29.196Z,4.57
2022-11-04T07:28:56.016Z,5.80
2022-11-04T07:31:22.839Z,3.23
2022-11-04T07:33:51.291Z,7.20
2022-11-04T07:36:19.481Z,4.97
2022-11-04T07:38:47.539Z,5.67
2022-11-04T07:41:17.967Z,3.70
2022-11-04T07:43:52.315Z,5.80
2022-11-04T07:46:21.057Z,4.00
2022-11-04T07:48:48.216Z,4.17
2022-11-04T07:51:19.683Z,3.93
2022-11-04T07:53:46.859Z,3.80
2022-11-04T07:56:14.346Z,2.53
2022-11-04T07:58:41.805Z,3.03
2022-11-04T08:01:14.116Z,5.60
2022-11-04T08:03:41.099Z,3.83
2022-11-04T08:06:10.710Z,6.10
2022-11-04T08:08:37.979Z,6.23
2022-11-04T08:11:15.905Z,4.37
2022-11-04T08:13:45.695Z,3.97
2022-11-04T08:16:16.712Z,4.60
2022-11-04T08:18:44.663Z,4.50
2022-11-04T08:21:12.746Z,5.93
2022-11-04T08:23:40.269Z,4.47
2022-11-04T08:26:12.961Z,3.33
2022-11-04T08:28:40.344Z,5.80
2022-11-04T08:31:26.267Z,6.80
2022-11-04T08:33:55.117Z,4.53
2022-11-04T08:36:26.831Z,4.70
2022-11-04T08:38:54.442Z,7.97
2022-11-04T08:41:27.962Z,8.40
2022-11-04T08:43:56.427Z,5.73
2022-11-04T08:46:23.335Z,5.47
2022-11-04T08:48:50.509Z,4.60
2022-11-04T08:51:23.345Z,5.33
2022-11-04T08:53:51.261Z,8.17
2022-11-04T08:56:21.344Z,7.30
2022-11-04T08:58:49.124Z,7.03
2022-11-04T09:01:17.708Z,6.23
2022-11-04T09:03:44.774Z,7.63
2022-11-04T09:06:16.997Z,7.47
2022-11-04T09:08:43.943Z,5.47
2022-11-04T09:11:14.247Z,5.20
2022-11-04T09:13:42.596Z,3.90
2022-11-04T09:16:13.759Z,7.17
2022-11-04T09:18:41.548Z,8.47
2022-11-04T09:21:10.810Z,6.93
2022-11-04T09:23:37.946Z,5.83
2022-11-04T09:26:15.135Z,4.37
2022-11-04T09:28:42.535Z,5.23
2022-11-04T09:31:18.917Z,4.13
2022-11-04T09:33:46.031Z,5.97
2022-11-04T09:36:14.147Z,8.30
2022-11-04T09:38:43.458Z,6.80
2022-11-04T09:41:30.549Z,5.47
2022-11-04T09:45:19.993Z,6.67
2022-11-04T09:47:44.107Z,7.17
2022-11-04T09:50:29.200Z,4.83
2022-11-04T09:53:22.665Z,9.33
2022-11-04T09:56:06.582Z,7.03
2022-11-04T09:58:38.483Z,7.23
2022-11-04T10:01:19.279Z,7.03
2022-11-04T10:04:08.279Z,4.50
2022-11-04T10:07:33.395Z,5.23
2022-11-04T10:10:45.862Z,6.60
2022-11-04T10:13:56.469Z,6.37
2022-11-04T10:16:43.069Z,5.23
2022-11-04T10:19:36.915Z,5.67
2022-11-04T10:22:29.876Z,5.63
2022-11-04T10:25:21.181Z,5.73
2022-11-04T10:27:51.387Z,6.33
2022-11-04T10:30:22.224Z,5.87
2022-11-04T10:33:09.514Z,7.77
2022-11-04T10:35:42.551Z,9.47
2022-11-04T10:38:46.852Z,6.80
2022-11-04T10:41:39.303Z,5.75
2022-11-04T10:44:26.790Z,6.67
2022-11-04T10:47:49.833Z,5.40
2022-11-04T10:50:37.541Z,5.63
2022-11-04T10:53:18.751Z,5.00
2022-11-04T10:55:54.452Z,7.03
2022-11-04T10:58:30.525Z,5.68
2022-11-04T11:00:57.947Z,9.30
2022-11-04T11:03:35.195Z,7.27
2022-11-04T11:06:29.764Z,9.03
2022-11-04T11:09:14.308Z,7.50
2022-11-04T11:11:47.715Z,7.80
2022-11-04T11:14:29.622Z,7.17
2022-11-04T11:17:20.136Z,6.75
2022-11-04T11:20:08.322Z,10.47
2022-11-04T11:22:47.388Z,8.37
2022-11-04T11:25:46.873Z,7.93
2022-11-04T11:28:25.189Z,5.87
2022-11-04T11:30:52.252Z,8.50
2022-11-04T11:33:51.013Z,10.87
2022-11-04T11:36:28.274Z,8.83
2022-11-04T11:39:03.527Z,8.57
2022-11-04T11:41:52.899Z,6.00
2022-11-04T11:44:31.628Z,9.27
2022-11-04T11:47:17.537Z,6.30
2022-11-04T11:49:45.114Z,6.40
2022-11-04T11:52:32.808Z,6.17
2022-11-04T11:55:26.311Z,6.53
2022-11-04T12:01:22.023Z,5.27
2022-11-04T12:10:00.077Z,6.03
2022-11-04T12:12:45.057Z,7.30
2022-11-04T12:16:10.503Z,8.93
2022-11-04T12:19:14.392Z,8.40
2022-11-04T12:22:37.660Z,5.63
2022-11-04T12:25:51.255Z,11.20
2022-11-04T12:28:44.083Z,6.23
2022-11-04T12:31:22.889Z,6.07
2022-11-04T12:34:29.909Z,5.73
2022-11-04T12:37:38.172Z,6.70
2022-11-04T12:40:20.834Z,5.97
2022-11-04T12:43:18.730Z,7.57
2022-11-04T12:46:12.137Z,5.10
2022-11-04T12:49:27.558Z,7.30
2022-11-04T12:52:09.733Z,6.13
2022-11-04T12:55:20.529Z,8.27
2022-11-04T12:57:58.108Z,8.27
2022-11-04T13:00:27.399Z,6.75
2022-11-04T13:03:14.824Z,7.45
2022-11-04T13:06:02.566Z,8.03
2022-11-04T13:09:10.135Z,7.13
2022-11-04T13:11:52.119Z,8.20
2022-11-04T13:14:29.933Z,8.00
2022-11-04T13:17:04.221Z,8.33
2022-11-04T13:19:54.649Z,9.38
2022-11-04T13:22:27.418Z,8.20
2022-11-04T13:24:59.342Z,7.03
2022-11-04T13:27:35.347Z,6.00
2022-11-04T13:30:23.330Z,5.97
2022-11-04T13:33:12.956Z,6.78
2022-11-04T13:36:14.700Z,8.43
2022-11-04T13:39:42.756Z,8.53
2022-11-04T13:42:12.512Z,7.17
2022-11-04T13:44:51.282Z,7.23
2022-11-04T13:47:25.349Z,5.70
2022-11-04T13:49:57.992Z,9.10
2022-11-04T13:52:36.211Z,5.60
2022-11-04T13:55:17.239Z,6.27
2022-11-04T13:58:01.479Z,6.97
2022-11-04T14:00:31.279Z,5.90
2022-11-04T14:03:18.513Z,5.50
2022-11-04T14:06:03.830Z,6.50
2022-11-04T14:08:31.864Z,9.40
2022-11-04T14:11:06.820Z,9.13
2022-11-04T14:13:42.379Z,5.70
2022-11-04T14:16:23.989Z,7.60
2022-11-04T14:18:53.659Z,10.30
2022-11-04T14:22:00.499Z,7.13
2022-11-04T14:24:28.919Z,7.10
2022-11-04T14:26:55.806Z,6.30
2022-11-04T14:29:28.137Z,8.20
2022-11-04T14:31:59.292Z,9.90
2022-11-04T14:34:33.517Z,8.93
2022-11-04T14:37:21.496Z,7.10
2022-11-04T14:39:58.864Z,7.17
2022-11-04T14:42:49.650Z,5.37
2022-11-04T14:45:26.922Z,4.97
2022-11-04T14:48:17.760Z,5.20
2022-11-04T14:50:50.967Z,5.00
2022-11-04T14:53:37.044Z,7.73
2022-11-04T14:56:17.873Z,5.13
2022-11-04T14:59:03.169Z,5.40
2022-11-04T15:01:35.570Z,5.47
2022-11-04T15:04:18.238Z,5.47
2022-11-04T15:06:59.154Z,5.20
2022-11-04T15:09:34.702Z,4.43
2022-11-04T15:12:29.105Z,4.03
2022-11-04T15:14:57.972Z,6.23
2022-11-04T15:17:30.980Z,3.97
2022-11-04T15:20:01.971Z,5.90
2022-11-04T15:22:30.700Z,5.83
2022-11-04T15:25:05.816Z,3.63
2022-11-04T15:27:34.378Z,4.97
2022-11-04T15:30:06.046Z,3.67
2022-11-04T15:32:32.929Z,3.13
2022-11-04T15:35:00.673Z,3.27
2022-11-04T15:37:30.032Z,3.53
2022-11-04T15:39:58.991Z,6.47
2022-11-04T15:42:39.647Z,2.30
2022-11-04T15:45:52.745Z,2.50
2022-11-04T15:48:29.656Z,1.83
2022-11-04T15:51:25.253Z,1.83
2022-11-04T15:53:58.127Z,1.97
2022-11-04T15:56:32.150Z,3.03
2022-11-04T15:59:01.646Z,3.00
2022-11-04T16:01:29.281Z,2.07
2022-11-04T16:04:00.370Z,2.53
2022-11-04T16:06:39.709Z,2.83
2022-11-04T16:09:12.247Z,1.53
2022-11-04T16:11:39.648Z,2.73
2022-11-04T16:14:35.855Z,2.97
2022-11-04T16:17:03.315Z,2.23
2022-11-04T16:19:32.252Z,2.63
2022-11-04T16:22:09.992Z,2.10
2022-11-04T16:24:40.483Z,2.40
2022-11-04T16:27:14.271Z,3.77
2022-11-04T16:29:46.732Z,3.30
2022-11-04T16:32:18.354Z,3.37
2022-11-04T16:34:49.372Z,3.30
2022-11-04T16:37:16.346Z,2.57
2022-11-04T16:39:45.313Z,3.53
2022-11-04T16:42:15.360Z,4.43
2022-11-04T16:45:00.467Z,2.63
2022-11-04T16:47:30.623Z,3.37
2022-11-04T16:50:02.272Z,4.77
2022-11-04T16:52:30.760Z,3.77
2022-11-04T16:54:57.595Z,4.20
2022-11-04T16:57:25.659Z,3.47
2022-11-04T16:59:52.574Z,2.40
2022-11-04T17:02:23.278Z,4.03
2022-11-04T17:04:51.123Z,2.80
2022-11-04T17:07:18.058Z,2.50
2022-11-04T17:09:45.117Z,2.90
2022-11-04T17:12:12.419Z,2.00
2022-11-04T17:14:39.299Z,3.37
2022-11-04T17:17:08.161Z,2.03
2022-11-04T17:19:35.116Z,3.50
2022-11-04T17:22:05.878Z,2.40
2022-11-04T17:24:33.158Z,2.70
2022-11-04T17:27:00.329Z,1.93
2022-11-04T17:29:27.522Z,2.73
2022-11-04T17:31:55.624Z,2.17
2022-11-04T17:34:25.678Z,2.00
2022-11-04T17:36:53.855Z,2.13
2022-11-04T17:39:20.713Z,3.57
2022-11-04T17:42:06.039Z,2.60
2022-11-04T17:44:32.938Z,2.53
2022-11-04T17:47:00.820Z,2.13
2022-11-04T17:49:28.300Z,1.73
2022-11-04T17:52:00.561Z,2.50
2022-11-04T17:54:32.739Z,2.30
2022-11-04T17:56:59.588Z,2.57
2022-11-04T17:59:28.390Z,1.90
2022-11-04T18:01:57.094Z,2.97
2022-11-04T18:04:24.075Z,2.57
2022-11-04T18:06:51.524Z,6.23
2022-11-04T18:09:19.136Z,2.03
2022-11-04T18:12:05.007Z,2.00
2022-11-04T18:14:32.402Z,3.10
2022-11-04T18:16:59.293Z,2.13
2022-11-04T18:19:27.691Z,3.60
2022-11-04T18:21:54.893Z,2.70
2022-11-04T18:24:24.033Z,3.73
2022-11-04T18:26:52.078Z,2.43
2022-11-04T18:29:19.047Z,3.57
2022-11-04T18:31:49.195Z,5.27
2022-11-04T18:34:19.506Z,3.43
2022-11-04T18:36:48.040Z,3.90
2022-11-04T18:39:18.446Z,6.77
2022-11-04T18:41:46.404Z,4.13
2022-11-04T18:44:18.056Z,6.07
2022-11-04T18:46:46.119Z,5.40
2022-11-04T18:49:14.715Z,4.50
2022-11-04T18:51:41.782Z,4.70
2022-11-04T18:54:10.661Z,4.43
2022-11-04T18:56:37.565Z,4.37
2022-11-04T18:59:08.253Z,4.37
2022-11-04T19:01:35.616Z,4.53
2022-11-04T19:04:02.520Z,4.87
2022-11-04T19:06:33.907Z,4.33
2022-11-04T19:09:25.208Z,3.57
2022-11-04T19:12:12.891Z,4.90
2022-11-04T19:14:40.285Z,3.93
2022-11-04T19:17:07.235Z,3.83
2022-11-04T19:19:34.136Z,4.00
2022-11-04T19:22:01.000Z,4.20
2022-11-04T19:24:28.682Z,4.03
2022-11-04T19:26:55.938Z,5.00
2022-11-04T19:29:22.828Z,5.30
2022-11-04T19:31:49.933Z,4.43
2022-11-04T19:34:16.776Z,4.47
2022-11-04T19:36:43.660Z,5.40
2022-11-04T19:39:10.556Z,4.07
2022-11-04T19:41:56.901Z,5.37
2022-11-04T19:44:24.080Z,5.10
2022-11-04T19:46:51.040Z,3.97
2022-11-04T19:49:18.431Z,4.87
2022-11-04T19:51:45.812Z,3.43
2022-11-04T19:54:13.658Z,3.77
2022-11-04T19:56:40.592Z,2.67
2022-11-04T19:59:09.484Z,4.43
2022-11-04T20:01:36.721Z,5.10
2022-11-04T20:04:04.678Z,3.20
2022-11-04T20:06:34.150Z,3.57
2022-11-04T20:09:07.051Z,3.47
2022-11-04T20:11:56.480Z,3.93
2022-11-04T20:14:24.810Z,3.40
2022-11-04T20:16:52.252Z,7.33
2022-11-04T20:19:22.668Z,4.40
2022-11-04T20:21:50.370Z,3.40
2022-11-04T20:24:18.594Z,5.53
2022-11-04T20:26:46.968Z,4.43
2022-11-04T20:29:17.637Z,6.63
2022-11-04T20:31:45.227Z,6.03
2022-11-04T20:34:14.536Z,4.83
2022-11-04T20:36:42.062Z,3.57
2022-11-04T20:39:20.059Z,4.33
2022-11-04T20:41:47.386Z,5.13
2022-11-04T20:44:16.227Z,4.30
2022-11-04T20:46:44.313Z,4.40
2022-11-04T20:49:13.620Z,3.93
2022-11-04T20:51:48.774Z,5.47
2022-11-04T20:54:17.959Z,5.37
2022-11-04T20:56:45.365Z,5.67
2022-11-04T20:59:14.238Z,4.57
2022-11-04T21:01:45.059Z,6.67
2022-11-04T21:04:18.931Z,4.07
2022-11-04T21:06:50.769Z,5.07
2022-11-04T21:09:21.193Z,6.23
2022-11-04T21:11:50.048Z,5.23
2022-11-04T21:14:19.408Z,3.80
2022-11-04T21:16:47.410Z,6.60
2022-11-04T21:19:15.757Z,5.43
2022-11-04T21:21:44.469Z,5.97
2022-11-04T21:24:15.039Z,12.10
2022-11-04T21:26:43.026Z,13.20
2022-11-04T21:29:18.387Z,9.27
2022-11-04T21:31:47.539Z,5.40
2022-11-04T21:34:15.460Z,4.87
2022-11-04T21:36:43.050Z,4.37
2022-11-04T21:39:11.021Z,4.07
2022-11-04T21:41:38.088Z,5.77
2022-11-04T21:44:11.182Z,5.20
2022-11-04T21:46:38.352Z,4.23
2022-11-04T21:49:05.807Z,5.30
2022-11-04T21:51:34.762Z,5.57
2022-11-04T21:54:06.761Z,5.47
2022-11-04T21:56:35.521Z,5.30
2022-11-04T21:59:04.483Z,4.83
2022-11-04T22:01:32.449Z,4.47
2022-11-04T22:04:01.946Z,4.70
2022-11-04T22:06:34.585Z,7.00
2022-11-04T22:09:04.744Z,6.43
2022-11-04T22:11:33.627Z,6.23
2022-11-04T22:14:04.486Z,6.03
2022-11-04T22:16:35.468Z,7.23
2022-11-04T22:19:05.449Z,5.07
2022-11-04T22:21:33.657Z,6.33
2022-11-04T22:24:01.482Z,5.50
2022-11-04T22:26:32.517Z,5.57
2022-11-04T22:29:00.088Z,4.83
2022-11-04T22:31:37.240Z,4.13
2022-11-04T22:34:05.281Z,2.53
2022-11-04T22:36:33.993Z,3.80
2022-11-04T22:39:01.105Z,2.53
2022-11-04T22:41:31.753Z,3.30
2022-11-04T22:43:59.295Z,2.77
2022-11-04T22:46:32.440Z,2.63
2022-11-04T22:48:59.769Z,2.50
2022-11-04T22:51:27.120Z,2.20
2022-11-04T22:53:58.066Z,4.40
2022-11-04T22:56:27.092Z,3.47
2022-11-04T22:58:54.549Z,4.07
2022-11-04T23:01:22.180Z,2.57
2022-11-04T23:03:52.066Z,2.43
2022-11-04T23:06:19.458Z,1.97
2022-11-04T23:08:46.321Z,2.80
2022-11-04T23:11:39.726Z,3.60
2022-11-04T23:14:25.706Z,3.87
2022-11-04T23:17:11.237Z,2.40
2022-11-04T23:19:39.435Z,2.37
2022-11-04T23:22:25.844Z,2.43
2022-11-04T23:25:06.213Z,2.57
2022-11-04T23:28:03.311Z,2.67
2022-11-04T23:30:34.704Z,3.13
2022-11-04T23:33:08.249Z,2.10
2022-11-04T23:36:04.467Z,2.57
2022-11-04T23:38:32.272Z,3.57
2022-11-04T23:41:22.724Z,3.30
2022-11-04T23:43:49.616Z,2.83
2022-11-04T23:46:42.238Z,3.10
2022-11-04T23:49:32.000Z,3.17
2022-11-04T23:52:17.486Z,4.47
2022-11-04T23:55:03.094Z,4.07
2022-11-04T23:57:48.433Z,3.23
